Portada
METAR-TAF:

METAR-TAF

Aeroports :

Aeroport Internacional de Tabarka

Tabarka, Tunísia

latitud: 36-57N, longitud: 008-45E, altitud: 20 m

Observació

L'informe es va fer fa 58 minuts, a les 19:00 UTC
Vent 19 kt del Oest/Nord-Oest amb ràfegues de 29 kt
Temperatura 16°C
Humitat 59%
Pressió 1024 hPa
Visibilitat 10 km o més
Núvols disperses a una alçada de 2000 ft

METAR: DTKA 101900Z 29019G29KT 9999 SCT020 16/08 Q1024 NOSIG

Hora: 20:58 (19:58 UTC)

Pronòstic

L'informe es va fer fa 1 hora i 8 minuts, a les 18:50 UTC
Pronòstic vàlid del 10 a les 19 UTC al 11 a les 04 UTC
Vent 20 kt del Oest/Nord-Oest amb ràfegues de 31 kt
Visibilitat 10 km o més
Núvols disperses a una alçada de 2000 ft

TAF: DTKA 101850Z 1019/1104 29020G31KT 9999 SCT020

Observacions i pronòstics meteorològics de més de 4000 aeroports (METAR i TAF).

Les estacions disponibles són els punts grocs i vermells al mapa.

Posi el ratolí al punt desitjat per veure el nom de l'estació.

Feu clic per veure les observacions i els pronòstics meteorològics.

Per canviar el mapa: feu clic els botons verds amb una creu de color negre per apropar; al botó verd amb un guió per allunyar la imatge; o en les fletxes verdes per a mapes adjacents.


METAR-TAF: